Time;durP1;ratioP1;P1;durP2;ratioP2;P2;SDS_P1;SDS_P2;PMS_P1;PMS_P2;Temp;Humidity;BMP_temperature;BMP_pressure;BME280_temperature;BME280_humidity;BME280_pressure;Samples;Min_cycle;Max_cycle;Signal;HPM_P1;HPM_P2
2021/06/10 00:02:22;;;;;;;8.52;7.32;;;;;;;17.48;87.43;98147.03;5011776;28;20356;-78
2021/06/10 00:04:47;;;;;;;11.27;8.30;;;;;;;17.42;87.51;98137.31;4993700;28;20458;-75
2021/06/10 00:07:14;;;;;;;10.38;7.30;;;;;;;17.51;88.38;98140.03;5011601;28;20133;-75
2021/06/10 00:09:40;;;;;;;12.43;7.75;;;;;;;17.45;89.54;98135.81;4993649;28;20025;-77
2021/06/10 00:12:06;;;;;;;11.13;7.88;;;;;;;17.57;88.93;98136.75;5011128;28;20610;-74
2021/06/10 00:14:32;;;;;;;9.02;8.05;;;;;;;17.54;90.79;98142.13;4993508;28;20029;-75
2021/06/10 00:16:57;;;;;;;12.85;8.65;;;;;;;17.47;90.04;98139.09;4993789;28;20030;-76
2021/06/10 00:19:23;;;;;;;9.30;8.35;;;;;;;17.52;90.41;98141.63;5011075;28;20392;-76
2021/06/10 00:21:49;;;;;;;7.60;6.78;;;;;;;17.51;89.55;98146.34;5011087;28;20160;-76
2021/06/10 00:24:15;;;;;;;11.57;9.35;;;;;;;17.50;89.03;98149.47;4993497;28;20029;-76
2021/06/10 00:26:40;;;;;;;10.27;8.27;;;;;;;17.61;89.11;98157.06;4992927;28;20041;-77
2021/06/10 00:29:06;;;;;;;10.35;7.53;;;;;;;17.62;89.53;98157.88;4993163;28;20033;-75
2021/06/10 00:31:32;;;;;;;9.18;8.27;;;;;;;17.63;90.63;98159.50;4993290;28;20026;-76
2021/06/10 00:33:58;;;;;;;8.45;7.57;;;;;;;17.69;89.72;98158.16;4992780;28;20123;-75
2021/06/10 00:36:24;;;;;;;9.52;8.05;;;;;;;17.79;90.38;98163.31;5010853;28;20132;-75
2021/06/10 00:38:49;;;;;;;11.70;8.20;;;;;;;17.79;90.07;98168.84;4992888;28;20079;-75
2021/06/10 00:41:15;;;;;;;11.32;8.27;;;;;;;17.77;88.43;98170.28;5011160;28;20044;-75
2021/06/10 00:43:41;;;;;;;10.52;8.00;;;;;;;17.68;88.51;98167.59;4993227;28;20022;-77
2021/06/10 00:46:07;;;;;;;8.30;7.05;;;;;;;17.67;87.58;98175.09;4993112;28;20041;-76
2021/06/10 00:48:34;;;;;;;8.85;7.97;;;;;;;17.63;87.82;98173.34;4993103;28;20045;-75
2021/06/10 00:51:01;;;;;;;12.13;7.90;;;;;;;17.73;87.29;98175.69;4993186;28;20022;-79
2021/06/10 00:53:27;;;;;;;10.48;8.35;;;;;;;17.76;87.31;98175.00;4993068;28;20053;-76
2021/06/10 00:55:56;;;;;;;8.15;7.35;;;;;;;17.80;86.76;98187.03;4992699;28;20132;-77
2021/06/10 00:58:22;;;;;;;8.43;7.43;;;;;;;17.73;86.59;98178.47;4996793;28;20489;-78
2021/06/10 01:00:48;;;;;;;8.70;7.80;;;;;;;17.74;86.80;98182.03;4990724;28;20022;-77
2021/06/10 01:03:14;;;;;;;8.40;6.63;;;;;;;17.67;87.46;98179.81;4997358;28;20107;-77
2021/06/10 01:05:41;;;;;;;8.73;7.10;;;;;;;17.69;86.23;98196.09;4992678;28;20061;-78
2021/06/10 01:08:26;;;;;;;6.18;4.82;;;;;;;17.77;82.17;98193.25;5010455;28;20084;-77
2021/06/10 01:11:02;;;;;;;6.70;5.10;;;;;;;17.83;80.86;98193.84;5009054;28;20042;-79
2021/06/10 01:13:37;;;;;;;6.25;4.28;;;;;;;17.84;79.96;98199.06;5010373;28;20476;-79
2021/06/10 01:16:03;;;;;;;6.03;3.78;;;;;;;17.84;79.67;98193.53;4992674;28;20038;-76
2021/06/10 01:18:31;;;;;;;5.18;3.40;;;;;;;17.82;80.61;98190.31;5010446;28;20076;-77
2021/06/10 01:20:57;;;;;;;4.18;3.78;;;;;;;17.65;81.51;98191.22;4992250;28;20041;-77
2021/06/10 01:23:46;;;;;;;7.85;4.88;;;;;;;17.54;83.39;98184.41;5009874;28;20121;-75
2021/06/10 01:26:26;;;;;;;5.00;4.28;;;;;;;17.47;84.51;98191.63;4996092;28;20038;-76
2021/06/10 01:28:53;;;;;;;4.50;3.80;;;;;;;17.28;85.03;98183.78;5013899;28;20042;-76
2021/06/10 01:31:20;;;;;;;12.00;5.00;;;;;;;17.16;90.10;98191.16;5013412;28;20026;-78
2021/06/10 01:33:54;;;;;;;6.03;5.03;;;;;;;17.14;90.49;98177.63;5013573;28;20049;-79
2021/06/10 01:36:24;;;;;;;8.43;5.43;;;;;;;16.96;94.41;98170.56;5013855;28;20384;-79
2021/06/10 01:38:52;;;;;;;6.90;4.95;;;;;;;16.88;94.42;98183.31;5014020;28;20029;-78
2021/06/10 01:41:19;;;;;;;5.60;4.68;;;;;;;16.81;94.80;98187.69;4988696;28;20030;-78
2021/06/10 01:43:47;;;;;;;6.10;5.28;;;;;;;16.79;97.46;98176.19;4981635;28;20021;-80
2021/06/10 01:46:15;;;;;;;4.43;3.92;;;;;;;16.60;98.12;98165.50;5008516;28;20467;-80
2021/06/10 01:48:44;;;;;;;5.63;5.07;;;;;;;16.58;99.45;98170.53;4990609;28;20033;-77
2021/06/10 01:51:10;;;;;;;8.10;4.47;;;;;;;16.54;100.00;98170.38;4986412;28;20081;-79
2021/06/10 01:53:39;;;;;;;6.35;5.28;;;;;;;16.53;100.00;98163.22;5011314;28;20026;-78
2021/06/10 01:56:05;;;;;;;9.88;5.07;;;;;;;16.56;100.00;98153.50;4979353;28;20034;-78
2021/06/10 01:58:31;;;;;;;5.95;5.30;;;;;;;16.73;100.00;98155.41;5005886;28;20551;-79
2021/06/10 02:00:57;;;;;;;7.35;5.22;;;;;;;16.57;100.00;98133.03;4993237;28;20044;-78
2021/06/10 02:03:23;;;;;;;11.43;5.72;;;;;;;16.77;100.00;98145.28;4978445;28;20026;-78
2021/06/10 02:05:50;;;;;;;4.45;4.05;;;;;;;16.48;100.00;98140.47;4993989;28;20541;-78
2021/06/10 02:08:19;;;;;;;6.22;5.25;;;;;;;16.33;100.00;98147.34;4990809;28;20476;-78
2021/06/10 02:10:51;;;;;;;11.23;6.50;;;;;;;16.22;100.00;98137.78;4993912;28;20476;-78
2021/06/10 02:13:19;;;;;;;9.93;6.72;;;;;;;16.12;100.00;98129.84;4994634;28;20025;-81
2021/06/10 02:15:45;;;;;;;8.10;7.03;;;;;;;16.06;100.00;98133.91;5013208;28;20031;-79
2021/06/10 02:18:13;;;;;;;8.38;6.20;;;;;;;15.90;100.00;98119.81;5012798;28;20561;-78
2021/06/10 02:20:40;;;;;;;10.57;6.30;;;;;;;15.89;100.00;98129.22;4995247;28;20113;-78
2021/06/10 02:23:06;;;;;;;9.50;6.18;;;;;;;15.91;100.00;98126.13;5012777;28;20034;-76
2021/06/10 02:25:32;;;;;;;6.13;5.47;;;;;;;15.88;100.00;98135.84;4995129;28;20069;-79
2021/06/10 02:27:57;;;;;;;5.65;5.13;;;;;;;16.06;100.00;98137.50;5012475;28;20037;-79
2021/06/10 02:30:23;;;;;;;6.75;5.38;;;;;;;16.18;100.00;98141.53;4995286;28;20107;-78
2021/06/10 02:32:48;;;;;;;7.13;6.13;;;;;;;16.07;100.00;98139.09;5012588;28;20539;-80
2021/06/10 02:35:16;;;;;;;8.82;5.63;;;;;;;16.00;100.00;98133.28;4994965;28;20477;-78
2021/06/10 02:37:46;;;;;;;7.82;6.15;;;;;;;16.05;100.00;98138.63;5012902;28;20053;-77
2021/06/10 02:40:14;;;;;;;7.07;5.40;;;;;;;16.12;100.00;98145.59;5012689;28;20117;-79
2021/06/10 02:42:40;;;;;;;15.07;7.10;;;;;;;16.10;100.00;98134.06;5012972;28;20076;-80
2021/06/10 02:45:08;;;;;;;6.85;6.07;;;;;;;16.18;100.00;98147.03;4994942;28;20048;-79
2021/06/10 02:47:35;;;;;;;7.18;6.00;;;;;;;16.05;100.00;98141.38;5013310;28;21604;-78
2021/06/10 02:50:02;;;;;;;7.25;6.43;;;;;;;16.21;100.00;98138.91;4995068;28;20034;-77
2021/06/10 02:52:28;;;;;;;8.27;6.03;;;;;;;16.25;100.00;98145.41;5012252;28;20033;-78
2021/06/10 02:54:55;;;;;;;7.80;5.53;;;;;;;16.29;100.00;98148.34;5012928;28;20033;-76
2021/06/10 02:57:24;;;;;;;7.30;6.50;;;;;;;16.18;100.00;98136.00;4994972;28;20021;-77
2021/06/10 02:59:51;;;;;;;8.98;7.00;;;;;;;16.21;100.00;98138.09;4994849;28;20025;-77
2021/06/10 03:02:19;;;;;;;10.35;5.53;;;;;;;16.20;100.00;98145.56;5012712;28;20034;-77
2021/06/10 03:04:45;;;;;;;7.03;6.15;;;;;;;16.25;100.00;98147.38;5012346;28;20025;-77
2021/06/10 03:07:13;;;;;;;6.68;5.97;;;;;;;16.26;100.00;98138.72;4994545;28;20125;-79
2021/06/10 03:09:40;;;;;;;10.45;6.65;;;;;;;16.28;100.00;98152.22;4994684;28;20495;-77
2021/06/10 03:12:08;;;;;;;6.72;6.05;;;;;;;16.21;100.00;98152.72;5012339;28;21749;-78
2021/06/10 03:14:33;;;;;;;8.65;6.20;;;;;;;16.16;100.00;98157.59;4994534;28;20058;-78
2021/06/10 03:16:59;;;;;;;6.97;6.28;;;;;;;16.14;100.00;98152.41;5006553;28;20034;-78
2021/06/10 03:19:25;;;;;;;6.70;6.07;;;;;;;16.04;100.00;98164.59;4986595;28;20030;-80
2021/06/10 03:21:51;;;;;;;9.02;5.78;;;;;;;15.93;100.00;98159.72;4974577;28;20146;-78
2021/06/10 03:24:18;;;;;;;6.35;5.60;;;;;;;15.99;100.00;98161.19;4976863;28;20041;-78
2021/06/10 03:26:45;;;;;;;6.57;5.82;;;;;;;16.05;100.00;98155.19;4994069;28;20486;-79
2021/06/10 03:29:10;;;;;;;7.07;6.38;;;;;;;16.21;100.00;98144.44;5010129;28;20056;-77
2021/06/10 03:31:36;;;;;;;11.77;6.00;;;;;;;16.29;100.00;98159.38;5011706;28;20422;-80
2021/06/10 03:34:03;;;;;;;6.95;6.25;;;;;;;16.14;100.00;98146.06;4993837;28;20389;-78
2021/06/10 03:36:30;;;;;;;8.50;6.72;;;;;;;16.19;100.00;98162.47;4974045;28;20368;-77
2021/06/10 03:38:57;;;;;;;6.60;6.00;;;;;;;16.19;100.00;98160.53;4974548;28;20026;-79
2021/06/10 03:41:24;;;;;;;8.02;6.68;;;;;;;16.23;100.00;98160.66;4992249;28;20109;-79
2021/06/10 03:43:50;;;;;;;11.27;7.43;;;;;;;16.16;100.00;98155.66;4992069;28;20018;-79
2021/06/10 03:46:16;;;;;;;7.50;6.47;;;;;;;16.23;100.00;98155.13;4991395;28;20038;-77
2021/06/10 03:48:42;;;;;;;11.55;6.80;;;;;;;16.26;100.00;98169.09;4990228;28;20027;-80
2021/06/10 03:51:12;;;;;;;8.80;7.28;;;;;;;16.21;100.00;98161.00;4991736;28;20038;-77
2021/06/10 03:53:38;;;;;;;8.07;7.18;;;;;;;16.26;100.00;98162.75;4997990;28;20038;-78
2021/06/10 03:56:04;;;;;;;11.15;6.20;;;;;;;16.15;100.00;98158.72;5013162;28;20048;-77
2021/06/10 03:58:30;;;;;;;9.35;6.35;;;;;;;16.24;100.00;98156.78;4996246;28;20030;-76
2021/06/10 04:00:56;;;;;;;7.03;6.32;;;;;;;16.35;100.00;98160.81;4993523;28;20022;-78
2021/06/10 04:03:21;;;;;;;11.52;7.35;;;;;;;16.21;100.00;98146.38;5011534;28;20025;-81
2021/06/10 04:05:46;;;;;;;8.18;6.43;;;;;;;16.29;100.00;98164.91;4994946;28;20068;-86
2021/06/10 04:08:12;;;;;;;7.00;6.25;;;;;;;16.24;100.00;98157.59;4994255;28;20018;-82
2021/06/10 04:10:37;;;;;;;7.43;6.72;;;;;;;16.43;100.00;98168.28;5011691;28;20025;-82
2021/06/10 04:13:03;;;;;;;8.77;6.72;;;;;;;16.49;100.00;98158.66;4994349;28;20034;-84
2021/06/10 04:15:28;;;;;;;6.57;5.88;;;;;;;16.45;100.00;98165.97;4995197;28;20029;-83
2021/06/10 04:17:53;;;;;;;8.52;5.75;;;;;;;16.43;100.00;98176.56;5012901;28;20068;-86
2021/06/10 04:20:19;;;;;;;7.32;6.30;;;;;;;16.52;100.00;98185.63;5011544;28;20037;-82
2021/06/10 04:22:44;;;;;;;6.30;5.70;;;;;;;16.57;100.00;98185.50;4993929;28;20045;-85
2021/06/10 04:25:10;;;;;;;7.75;6.03;;;;;;;16.85;100.00;98203.28;5011739;28;20426;-83
2021/06/10 04:27:36;;;;;;;8.98;4.90;;;;;;;16.91;100.00;98192.88;4993250;28;20040;-79
2021/06/10 04:30:05;;;;;;;7.15;5.13;;;;;;;17.01;100.00;98193.31;5010374;28;20387;-79
2021/06/10 04:32:30;;;;;;;7.57;5.22;;;;;;;16.75;100.00;98189.84;4993030;28;20030;-82
2021/06/10 04:34:56;;;;;;;6.28;5.55;;;;;;;16.78;100.00;98188.38;4992785;28;20494;-79
2021/06/10 04:37:22;;;;;;;7.25;5.93;;;;;;;16.78;100.00;98189.19;5011003;28;20079;-81
2021/06/10 04:39:48;;;;;;;5.78;5.13;;;;;;;16.70;99.93;98186.41;4992746;28;20025;-79
2021/06/10 04:42:13;;;;;;;6.88;5.57;;;;;;;16.68;100.00;98189.53;4992865;28;20030;-78
2021/06/10 04:44:39;;;;;;;9.10;5.57;;;;;;;16.65;100.00;98190.19;4992691;28;20460;-78
2021/06/10 04:47:05;;;;;;;7.00;5.88;;;;;;;16.80;100.00;98192.41;4993192;28;20052;-81
2021/06/10 04:49:34;;;;;;;5.78;5.28;;;;;;;16.55;100.00;98193.28;5011104;28;20109;-79
2021/06/10 04:51:59;;;;;;;11.07;6.03;;;;;;;16.60;100.00;98190.38;4978453;28;20023;-79
2021/06/10 04:54:25;;;;;;;6.15;5.55;;;;;;;16.93;100.00;98191.41;4990767;28;20062;-83
2021/06/10 04:56:50;;;;;;;6.13;4.93;;;;;;;16.93;99.88;98191.41;4992883;28;20034;-84
2021/06/10 04:59:16;;;;;;;7.63;5.57;;;;;;;17.07;99.81;98180.91;5015228;28;20037;-87
2021/06/10 05:01:41;;;;;;;7.82;5.22;;;;;;;17.17;99.86;98185.28;5001602;28;20026;-87
2021/06/10 05:04:06;;;;;;;6.32;5.72;;;;;;;17.05;98.73;98191.50;5000841;28;20037;-87
2021/06/10 05:06:32;;;;;;;13.15;5.57;;;;;;;17.08;98.68;98187.25;4999476;28;20040;-82
2021/06/10 05:08:57;;;;;;;6.50;5.90;;;;;;;17.23;98.26;98188.69;5015196;28;20032;-86
2021/06/10 05:11:23;;;;;;;5.28;4.70;;;;;;;17.16;96.65;98182.84;5018392;28;20038;-82
2021/06/10 05:13:48;;;;;;;7.10;5.70;;;;;;;17.15;95.74;98187.56;4986768;28;20022;-80
2021/06/10 05:16:13;;;;;;;6.97;5.45;;;;;;;17.18;97.17;98188.84;5002996;28;20018;-80
2021/06/10 05:18:39;;;;;;;7.93;5.70;;;;;;;17.29;95.49;98187.34;5004600;28;20037;-80
2021/06/10 05:21:04;;;;;;;12.07;5.90;;;;;;;17.20;96.60;98183.81;5001139;28;20018;-78
2021/06/10 05:23:30;;;;;;;6.90;5.40;;;;;;;17.25;96.62;98191.91;5002875;28;20499;-80
2021/06/10 05:25:55;;;;;;;8.18;5.97;;;;;;;17.29;97.60;98190.91;4985167;28;20037;-76
2021/06/10 05:28:21;;;;;;;7.10;6.40;;;;;;;17.42;96.16;98194.56;4985927;28;20054;-78
2021/06/10 05:30:46;;;;;;;7.10;6.10;;;;;;;17.62;95.94;98202.16;5001983;28;20027;-79
2021/06/10 05:33:15;;;;;;;8.25;6.25;;;;;;;17.70;95.71;98192.19;4986437;28;20030;-77
2021/06/10 05:35:40;;;;;;;8.27;6.88;;;;;;;17.88;95.96;98194.50;5007182;28;20056;-79
2021/06/10 05:38:05;;;;;;;10.45;7.65;;;;;;;17.78;95.42;98196.84;5006485;28;20030;-80
2021/06/10 05:40:31;;;;;;;8.30;6.40;;;;;;;17.83;95.91;98200.19;5008738;28;20044;-80
2021/06/10 05:42:56;;;;;;;8.38;7.10;;;;;;;17.83;94.75;98202.97;5002149;28;20038;-82
2021/06/10 05:45:22;;;;;;;6.93;6.22;;;;;;;17.97;94.02;98200.78;5003674;28;20038;-82
2021/06/10 05:47:48;;;;;;;10.13;7.32;;;;;;;18.29;93.59;98206.69;5006197;28;20562;-84
2021/06/10 05:50:14;;;;;;;7.03;6.28;;;;;;;18.40;93.69;98210.66;5000571;28;20451;-76
2021/06/10 05:52:40;;;;;;;6.95;6.25;;;;;;;18.55;93.73;98212.81;4994322;28;20138;-75
2021/06/10 05:55:07;;;;;;;6.82;5.78;;;;;;;18.31;93.00;98221.81;5007023;28;20529;-84
2021/06/10 05:57:35;;;;;;;6.85;6.15;;;;;;;18.27;94.47;98218.09;5008209;28;20018;-77
2021/06/10 06:00:01;;;;;;;8.38;6.53;;;;;;;18.38;94.09;98226.81;5003718;28;20033;-77
2021/06/10 06:02:26;;;;;;;6.57;5.53;;;;;;;18.25;93.59;98227.91;5004133;28;20018;-78
2021/06/10 06:04:52;;;;;;;9.77;6.15;;;;;;;18.44;93.79;98228.22;5001741;28;20788;-78
2021/06/10 06:07:18;;;;;;;10.27;6.80;;;;;;;18.29;93.69;98229.66;5003346;28;20681;-78
2021/06/10 06:09:43;;;;;;;11.95;7.30;;;;;;;18.21;94.17;98225.00;4994403;28;20026;-83
2021/06/10 06:12:11;;;;;;;8.93;6.43;;;;;;;18.38;93.83;98235.94;5000723;28;20027;-81
2021/06/10 06:14:38;;;;;;;7.55;6.78;;;;;;;18.45;93.87;98232.63;4975439;28;20439;-79
2021/06/10 06:17:05;;;;;;;12.40;7.93;;;;;;;18.45;94.81;98225.09;4994717;28;20072;-84
2021/06/10 06:19:32;;;;;;;8.27;7.47;;;;;;;18.45;95.08;98227.09;4978497;28;20034;-81
2021/06/10 06:21:57;;;;;;;9.90;8.07;;;;;;;18.25;94.37;98233.44;4976205;28;20109;-80
2021/06/10 06:24:23;;;;;;;12.88;7.88;;;;;;;18.09;95.13;98247.09;4975496;28;20468;-80
2021/06/10 06:26:48;;;;;;;8.23;7.38;;;;;;;17.86;96.16;98243.81;4975253;28;20041;-79
2021/06/10 06:29:14;;;;;;;13.48;9.00;;;;;;;17.65;96.92;98249.31;4993534;28;20084;-80
2021/06/10 06:31:39;;;;;;;10.10;8.38;;;;;;;17.84;97.80;98253.59;4976338;28;20476;-79
2021/06/10 06:34:05;;;;;;;7.53;6.60;;;;;;;18.08;94.11;98256.53;4975799;28;20037;-81
2021/06/10 06:36:30;;;;;;;7.20;6.47;;;;;;;18.26;90.37;98255.28;4994868;28;20420;-79
2021/06/10 06:38:56;;;;;;;7.40;6.60;;;;;;;18.42;89.57;98258.25;4992016;28;20798;-79
2021/06/10 06:41:22;;;;;;;10.55;6.70;;;;;;;18.26;91.80;98249.72;4993180;28;20498;-82
2021/06/10 06:43:48;;;;;;;7.78;7.00;;;;;;;18.38;91.09;98258.09;4979778;28;20018;-80
2021/06/10 06:46:13;;;;;;;8.27;6.85;;;;;;;18.63;87.98;98254.31;5001280;28;20477;-80
2021/06/10 06:48:39;;;;;;;7.30;6.60;;;;;;;18.87;87.09;98267.44;4983526;28;20034;-79
2021/06/10 06:51:06;;;;;;;9.68;6.75;;;;;;;18.98;86.25;98254.75;5001688;28;20053;-84
2021/06/10 06:53:32;;;;;;;7.57;6.88;;;;;;;19.06;84.33;98253.88;4986349;28;20030;-84
2021/06/10 06:55:59;;;;;;;9.07;6.97;;;;;;;19.09;84.37;98267.03;4990877;28;20043;-81
2021/06/10 06:58:25;;;;;;;8.18;6.80;;;;;;;19.14;83.66;98257.69;5001561;28;20026;-79
2021/06/10 07:00:51;;;;;;;7.60;6.43;;;;;;;19.26;82.56;98255.75;4983383;28;20087;-79
2021/06/10 07:03:16;;;;;;;11.70;6.18;;;;;;;19.53;80.72;98245.16;5002079;28;20025;-79
2021/06/10 07:05:41;;;;;;;7.40;6.63;;;;;;;19.51;81.33;98278.00;4982625;28;20026;-79
2021/06/10 07:08:07;;;;;;;14.00;6.63;;;;;;;19.70;81.25;98261.59;5001287;28;20033;-79
2021/06/10 07:10:33;;;;;;;9.95;7.50;;;;;;;19.24;81.41;98265.56;5001085;28;20177;-78
2021/06/10 07:12:59;;;;;;;7.05;6.28;;;;;;;19.53;80.68;98265.41;4980863;28;20117;-79
2021/06/10 07:15:24;;;;;;;10.68;6.25;;;;;;;19.41;82.48;98262.63;4983311;28;20453;-78
2021/06/10 07:17:49;;;;;;;7.75;6.45;;;;;;;19.60;82.00;98264.84;5002169;28;20022;-79
2021/06/10 07:20:15;;;;;;;18.05;7.43;;;;;;;19.36;82.26;98259.25;4987151;28;20030;-83
2021/06/10 07:22:41;;;;;;;9.32;8.13;;;;;;;19.22;84.33;98260.38;4985918;28;20022;-84
2021/06/10 07:25:07;;;;;;;8.20;6.43;;;;;;;19.55;82.01;98270.59;5000908;28;20069;-84
2021/06/10 07:27:33;;;;;;;10.85;6.60;;;;;;;19.48;81.07;98268.41;4986248;28;20010;-85
2021/06/10 07:29:59;;;;;;;7.53;6.05;;;;;;;19.77;82.92;98265.41;5003835;28;20038;-83
2021/06/10 07:32:26;;;;;;;5.75;5.15;;;;;;;20.11;81.02;98275.19;4989068;28;20392;-82
2021/06/10 07:34:52;;;;;;;6.60;5.60;;;;;;;20.67;78.09;98276.13;4999195;28;20034;-83
2021/06/10 07:37:18;;;;;;;7.93;5.70;;;;;;;21.21;75.79;98275.66;4983347;28;20041;-82
2021/06/10 07:39:44;;;;;;;6.10;5.00;;;;;;;21.77;72.08;98279.09;4986068;28;20041;-81
2021/06/10 07:42:10;;;;;;;6.78;4.93;;;;;;;22.03;72.29;98270.97;4999149;28;20023;-82
2021/06/10 07:44:36;;;;;;;5.15;4.65;;;;;;;22.29;68.12;98271.19;4999830;28;20019;-80
2021/06/10 07:47:03;;;;;;;5.60;4.82;;;;;;;21.74;70.42;98260.31;4999209;28;20125;-83
2021/06/10 07:49:29;;;;;;;5.53;4.97;;;;;;;21.62;71.80;98265.97;4981872;28;20029;-83
2021/06/10 07:51:54;;;;;;;7.97;5.72;;;;;;;21.50;69.95;98268.84;4982540;28;20595;-80
2021/06/10 07:54:19;;;;;;;6.03;5.35;;;;;;;21.55;69.37;98257.47;4997581;28;20057;-81
2021/06/10 07:56:45;;;;;;;5.72;4.35;;;;;;;21.98;68.63;98265.69;4984981;28;20479;-80
2021/06/10 07:59:10;;;;;;;5.10;4.20;;;;;;;22.96;64.53;98271.84;4982584;28;20161;-81
2021/06/10 08:01:37;;;;;;;5.00;4.20;;;;;;;23.76;60.97;98268.13;4974221;28;20070;-81
2021/06/10 08:04:03;;;;;;;5.32;4.82;;;;;;;24.04;59.41;98267.75;4973787;28;20026;-80
2021/06/10 08:06:29;;;;;;;6.90;4.95;;;;;;;23.46;61.98;98268.81;4972979;28;20033;-80
2021/06/10 08:08:54;;;;;;;4.43;3.78;;;;;;;22.96;63.15;98274.63;4973793;28;20026;-81
2021/06/10 08:11:19;;;;;;;4.18;3.78;;;;;;;23.13;62.67;98267.75;4990820;28;20356;-80
2021/06/10 08:13:45;;;;;;;8.85;4.32;;;;;;;23.57;61.11;98265.38;4990836;28;20069;-80
2021/06/10 08:16:11;;;;;;;7.13;4.20;;;;;;;23.91;60.64;98273.56;4973508;28;20038;-80
2021/06/10 08:18:36;;;;;;;6.05;4.13;;;;;;;24.33;59.60;98275.41;4973824;28;20026;-79
2021/06/10 08:21:02;;;;;;;6.20;4.53;;;;;;;24.31;58.98;98275.78;4973843;28;20484;-80
2021/06/10 08:23:29;;;;;;;4.47;3.95;;;;;;;23.71;62.59;98279.63;4990947;28;20033;-82
2021/06/10 08:25:57;;;;;;;4.20;3.72;;;;;;;23.29;62.21;98276.84;4990991;28;20057;-79
2021/06/10 08:28:23;;;;;;;4.80;3.90;;;;;;;24.57;59.22;98271.34;4973788;28;20038;-80
2021/06/10 08:30:49;;;;;;;5.07;3.50;;;;;;;25.50;56.04;98277.66;4991010;28;20029;-80
2021/06/10 08:33:15;;;;;;;6.95;3.35;;;;;;;25.94;52.59;98264.44;4984738;28;20037;-80
2021/06/10 08:35:41;;;;;;;5.07;3.22;;;;;;;25.72;53.56;98278.69;5001198;28;20037;-80
2021/06/10 08:38:09;;;;;;;5.07;3.35;;;;;;;25.28;53.25;98265.41;4996709;28;20117;-80
2021/06/10 08:40:36;;;;;;;3.65;3.35;;;;;;;24.36;57.15;98258.69;4999821;28;20398;-82
2021/06/10 08:43:02;;;;;;;6.25;3.65;;;;;;;23.69;59.07;98266.00;5004470;28;20113;-81
2021/06/10 08:45:30;;;;;;;4.32;3.15;;;;;;;22.92;60.51;98257.00;5002577;28;20032;-82
2021/06/10 08:47:58;;;;;;;5.80;4.50;;;;;;;22.16;62.91;98257.75;5000749;28;20772;-82
2021/06/10 08:50:26;;;;;;;4.43;3.83;;;;;;;22.93;61.05;98267.78;5003129;28;20018;-83
2021/06/10 08:52:56;;;;;;;5.15;3.15;;;;;;;22.91;61.82;98260.97;4980349;28;20030;-82
2021/06/10 08:55:23;;;;;;;3.53;3.22;;;;;;;22.15;63.99;98262.50;4980735;28;20058;-83
2021/06/10 08:57:49;;;;;;;7.85;3.75;;;;;;;22.20;63.24;98267.81;4998113;28;20022;-84
2021/06/10 09:00:15;;;;;;;3.67;3.35;;;;;;;22.10;64.27;98260.00;4998026;28;20109;-83
2021/06/10 09:02:49;;;;;;;5.15;3.25;;;;;;;22.57;63.57;98267.41;5000472;28;20026;-83
2021/06/10 09:05:14;;;;;;;5.15;4.18;;;;;;;22.65;61.72;98271.94;5002082;28;20025;-83
2021/06/10 09:07:46;;;;;;;3.72;3.30;;;;;;;22.93;60.41;98266.97;4982003;28;20068;-82
2021/06/10 09:10:12;;;;;;;4.13;3.72;;;;;;;23.06;60.48;98270.41;4984199;28;20030;-83
2021/06/10 09:12:48;;;;;;;4.03;3.63;;;;;;;23.15;60.38;98273.78;4981278;28;20117;-82
2021/06/10 09:15:13;;;;;;;;;;;;;;;22.67;60.83;98272.44;4983940;28;20105;-83
2021/06/10 09:17:41;;;;;;;4.75;3.53;;;;;;;22.56;61.08;98268.56;5000353;28;20004;-83
2021/06/10 09:20:18;;;;;;;4.20;3.80;;;;;;;22.45;61.63;98275.91;4998513;28;20026;-83
2021/06/10 09:22:44;;;;;;;3.95;3.55;;;;;;;22.14;62.55;98266.47;4992821;28;20022;-80
2021/06/10 09:25:16;;;;;;;4.22;3.55;;;;;;;22.27;62.76;98270.72;4979253;28;20100;-80
2021/06/10 09:27:56;;;;;;;3.95;3.55;;;;;;;21.77;63.68;98271.53;4981709;28;20035;-83
2021/06/10 09:30:28;;;;;;;4.47;3.58;;;;;;;21.76;65.27;98253.22;4998976;28;20026;-83
2021/06/10 09:32:54;;;;;;;4.75;3.83;;;;;;;21.40;66.34;98261.84;4981607;28;20026;-82
2021/06/10 09:35:32;;;;;;;5.18;3.80;;;;;;;21.36;67.21;98256.19;4978912;28;20058;-81
2021/06/10 09:38:03;;;;;;;4.55;3.78;;;;;;;21.61;66.11;98269.94;4984130;28;20447;-84
2021/06/10 09:40:29;;;;;;;6.70;4.13;;;;;;;21.65;66.72;98259.69;4994332;28;20037;-83
2021/06/10 09:42:55;;;;;;;4.30;3.90;;;;;;;21.52;66.15;98255.41;5007749;28;20043;-87
2021/06/10 09:45:24;;;;;;;4.35;3.38;;;;;;;21.42;66.60;98259.53;4979404;28;20030;-85
2021/06/10 09:47:53;;;;;;;5.45;3.72;;;;;;;21.55;65.84;98260.25;5000456;28;20092;-78
2021/06/10 09:50:41;;;;;;;4.80;4.30;;;;;;;21.59;65.34;98255.56;4985367;28;20026;-76
2021/06/10 09:53:16;;;;;;;5.03;3.90;;;;;;;21.78;65.69;98258.41;5001311;28;20026;-77
2021/06/10 09:55:59;;;;;;;4.82;4.32;;;;;;;21.97;64.57;98255.72;5004697;28;20404;-73
2021/06/10 09:58:35;;;;;;;4.55;4.15;;;;;;;21.95;65.13;98252.50;5006807;28;20064;-75
2021/06/10 10:01:01;;;;;;;;;;;;;;;21.91;65.81;98251.59;4985439;28;20037;-75
2021/06/10 10:03:29;;;;;;;4.38;3.97;;;;;;;21.93;64.97;98240.09;5000274;28;19948;-73
2021/06/10 10:05:58;;;;;;;6.05;4.25;;;;;;;21.96;65.89;98237.38;5001433;28;20038;-77
2021/06/10 10:08:25;;;;;;;4.95;4.03;;;;;;;22.25;64.65;98241.63;4984709;28;20121;-73
2021/06/10 10:10:51;;;;;;;5.68;4.47;;;;;;;22.15;63.37;98245.78;4982806;28;20393;-74
2021/06/10 10:13:19;;;;;;;7.47;4.45;;;;;;;22.17;62.37;98242.66;4983496;28;20109;-74
2021/06/10 10:15:45;;;;;;;5.65;3.83;;;;;;;22.33;62.31;98235.81;4984373;28;20037;-75
2021/06/10 10:18:11;;;;;;;6.20;4.38;;;;;;;22.46;63.19;98242.06;4999374;28;20015;-75
2021/06/10 10:20:38;;;;;;;7.60;5.65;;;;;;;22.14;63.29;98233.03;4983633;28;20097;-75
2021/06/10 10:23:05;;;;;;;4.43;4.03;;;;;;;22.12;64.45;98237.34;4984740;28;20037;-74
2021/06/10 10:25:31;;;;;;;5.43;4.78;;;;;;;22.29;64.20;98240.53;5001565;28;20050;-74
2021/06/10 10:27:57;;;;;;;9.55;4.28;;;;;;;22.19;64.33;98216.00;4998879;28;20062;-75
2021/06/10 10:30:23;;;;;;;11.60;4.30;;;;;;;22.62;62.95;98233.63;5004645;28;20018;-83
2021/06/10 10:32:49;;;;;;;4.20;3.75;;;;;;;22.97;62.60;98226.00;5017738;28;20045;-82
2021/06/10 10:35:24;;;;;;;5.78;4.40;;;;;;;23.41;61.44;98230.03;5017191;28;20030;-80
2021/06/10 10:37:51;;;;;;;;;;;;;;;23.13;60.70;98229.50;5020882;28;20019;-81
2021/06/10 10:40:23;;;;;;;4.45;4.05;;;;;;;23.32;60.14;98226.66;5020829;28;19901;-79
2021/06/10 10:42:59;;;;;;;3.83;3.53;;;;;;;23.44;59.27;98220.09;5020661;28;20006;-79
2021/06/10 10:45:26;;;;;;;;;;;;;;;23.40;60.15;98222.00;5004200;28;20022;-80
2021/06/10 10:50:40;;;;;;;4.50;4.10;;;;;;;23.34;57.98;98201.94;5000771;28;20019;-80
2021/06/10 10:53:19;;;;;;;9.88;4.63;;;;;;;22.94;58.63;98194.06;5000819;28;20019;-80
2021/06/10 10:56:06;;;;;;;5.22;4.00;;;;;;;23.21;59.08;98202.53;5000064;28;20013;-79
2021/06/10 10:58:32;;;;;;;4.90;4.32;;;;;;;23.23;58.63;98189.78;5000000;28;20049;-78
2021/06/10 11:01:11;;;;;;;5.18;3.90;;;;;;;23.38;59.25;98190.84;4999732;28;20079;-79
2021/06/10 11:03:43;;;;;;;4.35;3.67;;;;;;;23.18;59.82;98192.88;5000308;28;20038;-80
2021/06/10 11:06:21;;;;;;;7.43;4.65;;;;;;;23.79;58.00;98203.09;4999805;28;20019;-79
2021/06/10 11:09:11;;;;;;;6.30;4.18;;;;;;;24.23;56.70;98209.75;5000049;28;20011;-80
2021/06/10 11:11:53;;;;;;;3.60;3.30;;;;;;;24.52;56.26;98205.34;4992226;28;20035;-81
2021/06/10 11:14:51;;;;;;;4.60;3.60;;;;;;;24.31;55.65;98203.06;4975765;28;20030;-84
2021/06/10 11:17:29;;;;;;;5.38;4.22;;;;;;;24.35;55.79;98201.13;4983531;28;20085;-76
2021/06/10 11:20:11;;;;;;;5.35;3.70;;;;;;;24.81;55.34;98198.09;4981948;28;20030;-80
2021/06/10 11:22:39;;;;;;;4.18;3.78;;;;;;;24.85;54.59;98194.16;4978840;28;20035;-79
2021/06/10 11:25:10;;;;;;;4.13;3.33;;;;;;;25.36;53.07;98199.06;4983096;28;20022;-77
2021/06/10 11:27:47;;;;;;;6.60;4.25;;;;;;;24.99;54.60;98199.13;4981030;28;20025;-77
2021/06/10 11:30:17;;;;;;;3.97;3.50;;;;;;;25.16;52.92;98195.66;4995593;28;20054;-79
2021/06/10 11:32:58;;;;;;;5.03;3.53;;;;;;;24.91;51.50;98194.63;4976199;28;20030;-77
2021/06/10 11:35:30;;;;;;;4.70;3.53;;;;;;;24.79;53.22;98186.47;4978767;28;20104;-78
2021/06/10 11:37:58;;;;;;;4.93;3.58;;;;;;;24.37;55.97;98181.97;4990700;28;20479;-80